Time;durP1;ratioP1;P1;durP2;ratioP2;P2;SDS_P1;SDS_P2;PMS_P1;PMS_P2;Temp;Humidity;BMP_temperature;BMP_pressure;BME280_temperature;BME280_humidity;BME280_pressure;Samples;Min_cycle;Max_cycle;Signal;HPM_P1;HPM_P2
2023/12/07 00:02:04;;;;;;;15.70;6.20;;;;;;;4.17;90.57;97769.03;4409403;32;20097;-83
2023/12/07 00:04:31;;;;;;;17.92;6.93;;;;;;;3.55;94.08;97767.75;4409602;32;20165;-83
2023/12/07 00:06:58;;;;;;;14.57;6.43;;;;;;;3.55;94.40;97768.59;4409736;32;20125;-83
2023/12/07 00:09:26;;;;;;;15.73;6.43;;;;;;;3.72;94.33;97770.78;4409270;32;20086;-83
2023/12/07 00:11:53;;;;;;;15.05;6.05;;;;;;;3.77;91.95;97764.75;4396005;32;20123;-83
2023/12/07 00:14:20;;;;;;;14.80;6.20;;;;;;;3.41;94.58;97773.13;4409423;32;20106;-83
2023/12/07 00:16:47;;;;;;;18.77;7.60;;;;;;;4.12;91.11;97777.63;4409678;32;20114;-83
2023/12/07 00:19:14;;;;;;;19.15;7.70;;;;;;;4.00;89.43;97773.63;4409601;32;20073;-83
2023/12/07 00:21:41;;;;;;;18.95;7.70;;;;;;;3.76;91.77;97785.19;4409495;32;20164;-84
2023/12/07 00:24:08;;;;;;;17.62;7.22;;;;;;;4.07;90.76;97787.97;4409023;32;20094;-83
2023/12/07 00:26:35;;;;;;;20.23;8.60;;;;;;;4.77;86.94;97783.81;4409544;32;20108;-83
2023/12/07 00:29:02;;;;;;;22.50;9.43;;;;;;;4.56;88.66;97784.31;4409394;32;20421;-84
2023/12/07 00:31:29;;;;;;;20.00;9.00;;;;;;;4.37;89.58;97778.81;4409067;32;20098;-83
2023/12/07 00:33:56;;;;;;;20.80;9.23;;;;;;;4.22;89.88;97792.72;4409379;32;20464;-83
2023/12/07 00:36:23;;;;;;;20.25;8.93;;;;;;;4.55;88.18;97792.84;4408817;32;20473;-83
2023/12/07 00:38:50;;;;;;;22.15;9.65;;;;;;;4.25;88.12;97795.25;4395582;32;20101;-83
2023/12/07 00:41:17;;;;;;;21.35;9.85;;;;;;;4.69;87.84;97803.63;4409207;32;20145;-83
2023/12/07 00:43:45;;;;;;;21.10;8.68;;;;;;;4.50;87.71;97800.63;4409042;32;20150;-83
2023/12/07 00:46:12;;;;;;;22.37;9.02;;;;;;;4.19;89.52;97804.72;4409055;32;20177;-83
2023/12/07 00:48:38;;;;;;;22.17;9.35;;;;;;;3.83;91.45;97803.75;4409080;32;20157;-83
2023/12/07 00:51:06;;;;;;;25.15;7.62;;;;;;;3.88;92.26;97799.41;4395203;32;20102;-83
2023/12/07 00:53:33;;;;;;;25.90;10.65;;;;;;;3.89;92.51;97799.38;4408943;32;20108;-83
2023/12/07 00:56:00;;;;;;;21.08;9.13;;;;;;;3.99;91.61;97805.97;4409529;32;20086;-83
2023/12/07 00:58:27;;;;;;;23.55;8.57;;;;;;;3.76;91.77;97806.44;4410816;32;20116;-83
2023/12/07 01:00:54;;;;;;;17.90;7.57;;;;;;;4.34;89.35;97799.28;4397398;32;20445;-83
2023/12/07 01:03:21;;;;;;;24.65;10.32;;;;;;;4.11;90.36;97804.88;4411053;32;20155;-83
2023/12/07 01:05:48;;;;;;;24.15;9.93;;;;;;;4.29;90.40;97807.06;4410533;32;20148;-83
2023/12/07 01:08:15;;;;;;;25.23;10.02;;;;;;;4.28;89.96;97797.72;4410993;32;20077;-83
2023/12/07 01:10:42;;;;;;;19.67;8.45;;;;;;;3.89;91.14;97801.09;4410892;32;20153;-83
2023/12/07 01:13:09;;;;;;;22.08;8.88;;;;;;;5.09;84.86;97795.81;4410649;32;20444;-83
2023/12/07 01:15:36;;;;;;;22.05;9.48;;;;;;;4.78;85.19;97811.03;4410737;32;20151;-83
2023/12/07 01:18:03;;;;;;;23.52;9.65;;;;;;;4.83;84.76;97800.72;4410862;32;20098;-83
2023/12/07 01:20:30;;;;;;;21.58;9.30;;;;;;;4.99;85.13;97809.69;4410645;32;20097;-83
2023/12/07 01:22:57;;;;;;;20.85;9.40;;;;;;;4.93;84.31;97802.19;4411107;32;20098;-83
2023/12/07 01:25:24;;;;;;;23.55;9.85;;;;;;;4.51;87.36;97799.75;4410385;32;20523;-83
2023/12/07 01:27:51;;;;;;;23.33;9.88;;;;;;;4.49;88.59;97798.13;4410797;32;20085;-83
2023/12/07 01:30:18;;;;;;;24.25;10.63;;;;;;;4.33;88.50;97805.25;4410886;32;20497;-83
2023/12/07 01:32:45;;;;;;;24.23;10.63;;;;;;;5.01;85.57;97796.91;4410525;32;20097;-83
2023/12/07 01:35:12;;;;;;;23.90;9.88;;;;;;;4.00;90.92;97806.81;4410733;32;20094;-83
2023/12/07 01:37:39;;;;;;;23.42;9.82;;;;;;;4.32;89.05;97804.44;4410805;32;20107;-83
2023/12/07 01:40:10;;;;;;;24.70;9.75;;;;;;;4.08;90.47;97810.06;4410492;32;20098;-83
2023/12/07 01:42:38;;;;;;;25.60;10.15;;;;;;;4.60;87.38;97798.72;4410930;32;20397;-83
2023/12/07 01:45:06;;;;;;;23.10;10.00;;;;;;;4.54;87.77;97802.25;4410676;32;20149;-83
2023/12/07 01:47:35;;;;;;;28.98;11.73;;;;;;;4.55;86.61;97798.81;4396795;32;20145;-83
2023/12/07 01:50:06;;;;;;;21.75;9.13;;;;;;;4.40;89.24;97800.88;4397192;32;20119;-84
2023/12/07 01:52:35;;;;;;;22.17;9.30;;;;;;;4.37;88.18;97803.50;4397396;32;20190;-83
2023/12/07 01:55:02;;;;;;;24.15;9.93;;;;;;;4.96;86.27;97798.72;4396559;32;20137;-83
2023/12/07 01:57:30;;;;;;;23.90;9.85;;;;;;;4.93;86.26;97797.09;4410597;32;20143;-83
2023/12/07 01:59:57;;;;;;;24.08;10.15;;;;;;;4.33;90.18;97797.59;4410689;32;20125;-83
2023/12/07 02:02:24;;;;;;;20.95;9.45;;;;;;;4.45;87.39;97793.94;4410454;32;20133;-83
2023/12/07 02:04:51;;;;;;;23.60;9.88;;;;;;;4.86;86.36;97791.25;4410626;32;20107;-84
2023/12/07 02:07:19;;;;;;;21.62;9.25;;;;;;;4.69;87.43;97801.06;4395985;32;20157;-83
2023/12/07 02:09:46;;;;;;;22.62;9.15;;;;;;;4.86;86.09;97786.16;4396730;32;20105;-83
2023/12/07 02:12:13;;;;;;;22.77;8.43;;;;;;;4.51;86.33;97771.66;4396963;32;20141;-83
2023/12/07 02:14:41;;;;;;;19.02;7.87;;;;;;;4.67;86.18;97784.91;4410503;32;20181;-83
2023/12/07 02:17:30;;;;;;;19.40;7.18;;;;;;;4.23;88.42;97791.84;4397003;32;20078;-83
2023/12/07 02:20:05;;;;;;;21.85;8.55;;;;;;;3.78;91.54;97783.44;4396918;32;20120;-83
2023/12/07 02:22:37;;;;;;;20.85;8.18;;;;;;;4.63;88.66;97791.81;4410353;32;20161;-84
2023/12/07 02:25:15;;;;;;;23.27;9.15;;;;;;;4.15;89.22;97792.88;4397255;32;20101;-84
2023/12/07 02:27:45;;;;;;;21.65;8.95;;;;;;;4.67;86.31;97791.72;4396871;32;20101;-83
2023/12/07 02:30:13;;;;;;;18.67;8.38;;;;;;;4.27;89.34;97797.75;4410326;32;20098;-83
2023/12/07 02:32:42;;;;;;;18.62;7.75;;;;;;;3.56;92.40;97790.66;4410570;32;20147;-83
2023/12/07 02:35:14;;;;;;;20.48;8.80;;;;;;;4.14;90.27;97789.50;4396751;32;20571;-83
2023/12/07 02:37:51;;;;;;;21.65;9.48;;;;;;;4.19;89.82;97790.25;4396790;32;20346;-83
2023/12/07 02:40:23;;;;;;;22.70;9.40;;;;;;;3.73;91.70;97791.19;4396798;32;20114;-84
2023/12/07 02:42:52;;;;;;;17.15;8.13;;;;;;;3.76;91.52;97798.78;4396515;32;20105;-83
2023/12/07 02:45:19;;;;;;;24.55;10.38;;;;;;;3.98;92.24;97794.09;4410951;32;20137;-83
2023/12/07 02:47:46;;;;;;;21.27;8.60;;;;;;;3.62;93.69;97787.19;4396618;32;20585;-84
2023/12/07 02:50:13;;;;;;;21.27;9.13;;;;;;;4.08;92.44;97797.28;4396581;32;20133;-84
2023/12/07 02:52:40;;;;;;;21.12;9.63;;;;;;;4.02;91.14;97799.97;4410509;32;20102;-84
2023/12/07 02:55:08;;;;;;;20.88;8.75;;;;;;;3.65;93.04;97792.22;4410367;32;20437;-84
2023/12/07 02:57:36;;;;;;;21.52;9.93;;;;;;;3.76;94.81;97796.22;4410154;32;20086;-84
2023/12/07 03:00:07;;;;;;;21.90;9.98;;;;;;;3.84;92.79;97808.00;4410358;32;20117;-84
2023/12/07 03:02:35;;;;;;;23.87;10.07;;;;;;;3.70;93.20;97811.66;4410406;32;20094;-84
2023/12/07 03:05:03;;;;;;;18.70;9.00;;;;;;;4.28;90.59;97800.28;4409996;32;20098;-83
2023/12/07 03:07:30;;;;;;;19.42;8.50;;;;;;;3.62;93.07;97803.31;4410379;32;20162;-84
2023/12/07 03:09:57;;;;;;;21.98;8.95;;;;;;;3.65;93.48;97795.59;4410271;32;20160;-84
2023/12/07 03:12:24;;;;;;;19.30;8.68;;;;;;;3.97;90.75;97787.31;4409704;32;20141;-83
2023/12/07 03:14:52;;;;;;;18.02;7.32;;;;;;;3.28;94.94;97797.13;4410003;32;20464;-83
2023/12/07 03:17:19;;;;;;;20.65;7.95;;;;;;;3.53;94.10;97800.09;4410560;32;20113;-83
2023/12/07 03:19:46;;;;;;;16.58;7.18;;;;;;;3.47;95.15;97811.25;4395689;32;20161;-83
2023/12/07 03:22:13;;;;;;;24.87;9.15;;;;;;;3.40;93.73;97800.34;4410314;32;20089;-83
2023/12/07 03:24:45;;;;;;;18.48;8.00;;;;;;;3.10;97.85;97809.34;4396054;32;20169;-82
2023/12/07 03:27:12;;;;;;;20.52;8.75;;;;;;;3.58;94.17;97794.03;4410141;32;20100;-84
2023/12/07 03:29:39;;;;;;;18.12;7.45;;;;;;;3.66;93.42;97796.44;4410093;32;20129;-83
2023/12/07 03:32:07;;;;;;;17.75;7.30;;;;;;;2.79;97.69;97800.53;4396149;32;20131;-83
2023/12/07 03:34:34;;;;;;;20.75;7.75;;;;;;;3.29;96.77;97798.81;4410040;32;20106;-83
2023/12/07 03:37:01;;;;;;;19.35;6.57;;;;;;;3.23;96.41;97799.78;4409914;32;20086;-83
2023/12/07 03:39:29;;;;;;;19.17;7.72;;;;;;;2.99;96.15;97782.37;4409742;32;20089;-83
2023/12/07 03:41:56;;;;;;;17.62;7.60;;;;;;;3.11;95.96;97798.28;4410120;32;20726;-83
2023/12/07 03:44:23;;;;;;;20.55;8.68;;;;;;;3.11;97.36;97798.28;4409828;32;20101;-83
2023/12/07 03:46:50;;;;;;;17.60;7.75;;;;;;;3.34;96.16;97797.87;4409561;32;20129;-83
2023/12/07 03:49:17;;;;;;;19.15;8.23;;;;;;;3.10;96.07;97805.97;4396330;32;20101;-83
2023/12/07 03:51:44;;;;;;;17.50;7.57;;;;;;;3.38;95.03;97809.69;4409915;32;20093;-83
2023/12/07 03:54:11;;;;;;;17.48;7.80;;;;;;;3.14;95.73;97816.06;4409369;32;20105;-83
2023/12/07 03:56:40;;;;;;;21.50;9.02;;;;;;;3.42;94.66;97811.34;4409767;32;20148;-83
2023/12/07 03:59:07;;;;;;;21.40;8.07;;;;;;;3.28;95.59;97803.06;4409829;32;20113;-83
2023/12/07 04:01:34;;;;;;;16.80;6.60;;;;;;;3.34;95.47;97800.44;4409320;32;20093;-83
2023/12/07 04:04:01;;;;;;;19.58;7.87;;;;;;;3.19;96.02;97808.34;4409883;32;20101;-83
2023/12/07 04:06:28;;;;;;;23.30;7.65;;;;;;;2.81;97.42;97817.47;4409559;32;20108;-83
2023/12/07 04:08:56;;;;;;;19.65;8.05;;;;;;;3.14;96.69;97826.25;4409286;32;20125;-83
2023/12/07 04:11:23;;;;;;;19.12;7.78;;;;;;;3.41;93.70;97814.75;4409658;32;20111;-83
2023/12/07 04:13:50;;;;;;;20.02;8.77;;;;;;;2.96;98.18;97818.06;4409373;32;20090;-83
2023/12/07 04:16:17;;;;;;;22.45;9.25;;;;;;;2.92;97.65;97835.13;4409527;32;20168;-82
2023/12/07 04:18:44;;;;;;;18.77;7.85;;;;;;;3.08;96.82;97834.00;4409541;32;20094;-83
2023/12/07 04:21:11;;;;;;;20.58;8.25;;;;;;;3.10;96.68;97836.56;4409250;32;20086;-83
2023/12/07 04:23:38;;;;;;;21.05;8.25;;;;;;;3.07;97.09;97842.53;4404227;32;168664;-82
2023/12/07 04:26:05;;;;;;;18.17;7.70;;;;;;;2.98;97.36;97821.44;4409194;32;20120;-83
2023/12/07 04:28:32;;;;;;;20.20;8.88;;;;;;;3.11;96.34;97839.06;4409040;32;20105;-82
2023/12/07 04:30:59;;;;;;;20.88;8.95;;;;;;;3.39;94.91;97843.69;4410235;32;20089;-82
2023/12/07 04:33:26;;;;;;;19.12;8.75;;;;;;;3.52;94.98;97850.28;4411513;32;20106;-82
2023/12/07 04:35:53;;;;;;;19.10;8.20;;;;;;;3.17;96.20;97851.69;4411295;32;20109;-83
2023/12/07 04:38:20;;;;;;;17.62;8.00;;;;;;;3.30;95.61;97862.56;4411845;32;20113;-83
2023/12/07 04:40:47;;;;;;;18.73;7.68;;;;;;;3.32;95.18;97842.97;4411346;32;20112;-82
2023/12/07 04:43:15;;;;;;;19.00;7.72;;;;;;;2.84;96.58;97854.78;4411023;32;20082;-82
2023/12/07 04:45:42;;;;;;;15.05;6.72;;;;;;;3.16;96.91;97857.66;4410959;32;20437;-82
2023/12/07 04:48:09;;;;;;;16.62;7.03;;;;;;;3.03;95.19;97856.19;4411342;32;20106;-82
2023/12/07 04:50:36;;;;;;;16.30;6.82;;;;;;;2.94;96.77;97866.53;4410810;32;20145;-82
2023/12/07 04:53:03;;;;;;;15.25;6.32;;;;;;;2.89;95.92;97865.75;4411153;32;20128;-82
2023/12/07 04:55:30;;;;;;;17.77;7.32;;;;;;;3.15;96.41;97866.19;4410877;32;20082;-82
2023/12/07 04:57:57;;;;;;;14.50;6.40;;;;;;;2.88;96.73;97871.72;4410778;32;20109;-82
2023/12/07 05:00:24;;;;;;;14.43;6.55;;;;;;;3.22;95.11;97874.59;4411129;32;20090;-82
2023/12/07 05:02:51;;;;;;;14.80;6.20;;;;;;;3.16;95.04;97879.78;4410985;32;20090;-82
2023/12/07 05:05:18;;;;;;;13.82;5.25;;;;;;;3.15;96.54;97878.94;4410708;32;20082;-82
2023/12/07 05:07:46;;;;;;;14.55;6.35;;;;;;;3.22;95.17;97889.87;4411101;32;20097;-82
2023/12/07 05:10:13;;;;;;;16.12;5.93;;;;;;;3.48;93.62;97899.66;4410782;32;20133;-82
2023/12/07 05:12:40;;;;;;;13.65;5.90;;;;;;;3.19;95.41;97895.88;4410932;32;20086;-82
2023/12/07 05:15:08;;;;;;;16.40;6.70;;;;;;;2.97;96.22;97902.16;4410697;32;20562;-82
2023/12/07 05:17:35;;;;;;;12.88;5.15;;;;;;;2.95;97.67;97898.78;4410713;32;20109;-82
2023/12/07 05:20:04;;;;;;;13.62;5.15;;;;;;;2.99;96.65;97885.16;4411063;32;20102;-82
2023/12/07 05:22:31;;;;;;;13.70;5.43;;;;;;;3.02;96.49;97895.28;4397390;32;20470;-82
2023/12/07 05:24:59;;;;;;;14.20;5.65;;;;;;;2.79;96.86;97903.28;4410287;32;20085;-82
2023/12/07 05:27:26;;;;;;;14.90;5.57;;;;;;;3.12;96.14;97916.38;4410910;32;20098;-82
2023/12/07 05:29:53;;;;;;;15.07;5.03;;;;;;;2.99;96.99;97912.34;4410884;32;20483;-82
2023/12/07 05:32:20;;;;;;;13.40;5.12;;;;;;;2.81;97.41;97921.09;4410561;32;20083;-82
2023/12/07 05:34:47;;;;;;;12.32;4.72;;;;;;;2.69;98.99;97917.00;4410718;32;20138;-82
2023/12/07 05:37:14;;;;;;;13.20;5.37;;;;;;;2.96;97.48;97918.31;4410831;32;20098;-82
2023/12/07 05:39:41;;;;;;;12.48;4.57;;;;;;;3.22;96.12;97905.19;4410553;32;20152;-82
2023/12/07 05:42:08;;;;;;;13.43;5.10;;;;;;;3.08;96.16;97923.22;4410662;32;20086;-82
2023/12/07 05:44:35;;;;;;;13.48;4.87;;;;;;;3.06;96.77;97914.75;4410746;32;20140;-83
2023/12/07 05:47:02;;;;;;;12.48;5.10;;;;;;;2.68;98.72;97920.41;4410419;32;20089;-82
2023/12/07 05:49:29;;;;;;;11.32;4.60;;;;;;;3.03;98.07;97922.47;4397088;32;20484;-82
2023/12/07 05:51:56;;;;;;;10.82;4.00;;;;;;;3.10;96.73;97915.56;4410798;32;20097;-82
2023/12/07 05:54:23;;;;;;;10.20;4.18;;;;;;;2.92;96.35;97918.38;4410302;32;20516;-82
2023/12/07 05:56:50;;;;;;;12.50;4.45;;;;;;;2.97;98.46;97924.25;4410573;32;20445;-82
2023/12/07 05:59:17;;;;;;;11.95;4.32;;;;;;;2.70;98.56;97915.28;4410429;32;20098;-82
2023/12/07 06:01:44;;;;;;;11.00;4.57;;;;;;;2.74;98.91;97920.31;4410560;32;20173;-82
2023/12/07 06:04:12;;;;;;;12.65;4.82;;;;;;;2.48;98.80;97900.28;4410532;32;20074;-82
2023/12/07 06:06:40;;;;;;;12.05;4.95;;;;;;;2.42;100.00;97905.47;4410337;32;20149;-82
2023/12/07 06:09:07;;;;;;;11.73;4.53;;;;;;;2.71;99.36;97917.81;4410728;32;20496;-82
2023/12/07 06:11:35;;;;;;;11.55;4.30;;;;;;;2.90;98.78;97919.25;4410752;32;20083;-82
2023/12/07 06:14:02;;;;;;;11.35;4.55;;;;;;;2.64;98.47;97910.28;4396617;32;20086;-82
2023/12/07 06:16:30;;;;;;;12.07;4.78;;;;;;;2.92;97.63;97903.09;4410254;32;20102;-82
2023/12/07 06:18:57;;;;;;;9.57;3.85;;;;;;;2.86;99.17;97921.84;4410627;32;20089;-82
2023/12/07 06:21:27;;;;;;;9.25;4.10;;;;;;;2.97;97.13;97924.25;4410132;32;20842;-83
2023/12/07 06:23:54;;;;;;;11.10;4.70;;;;;;;2.68;98.12;97910.22;4410311;32;20478;-82
2023/12/07 06:26:21;;;;;;;10.95;4.45;;;;;;;2.75;98.98;97922.00;4410268;32;20437;-82
2023/12/07 06:28:48;;;;;;;11.43;4.20;;;;;;;2.74;99.72;97922.88;4410230;32;20089;-82
2023/12/07 06:31:15;;;;;;;11.20;4.25;;;;;;;2.71;98.19;97915.28;4410686;32;20093;-82
2023/12/07 06:33:43;;;;;;;11.85;4.82;;;;;;;2.64;99.14;97918.75;4410376;32;20416;-82
2023/12/07 06:36:10;;;;;;;13.07;4.85;;;;;;;2.65;99.93;97922.13;4409854;32;20154;-82
2023/12/07 06:38:38;;;;;;;10.77;3.95;;;;;;;2.70;99.41;97915.28;4410543;32;20112;-82
2023/12/07 06:41:05;;;;;;;10.50;4.15;;;;;;;2.26;100.00;97922.63;4410471;32;20100;-82
2023/12/07 06:43:32;;;;;;;11.95;4.80;;;;;;;2.26;100.00;97899.72;4410115;32;20108;-82
2023/12/07 06:45:59;;;;;;;11.98;4.95;;;;;;;2.31;100.00;97935.31;4410191;32;20087;-81
2023/12/07 06:48:26;;;;;;;12.27;4.68;;;;;;;2.52;100.00;97935.03;4410124;32;20385;-82
2023/12/07 06:50:53;;;;;;;10.82;4.30;;;;;;;2.47;100.00;97935.97;4396715;32;20086;-82
2023/12/07 06:53:21;;;;;;;14.05;5.07;;;;;;;2.69;100.00;97944.19;4409567;32;20160;-82
2023/12/07 06:55:48;;;;;;;12.37;4.68;;;;;;;3.03;98.11;97949.66;4409796;32;20153;-82
2023/12/07 06:58:15;;;;;;;12.35;5.00;;;;;;;2.80;99.45;97949.97;4410455;32;20147;-83
2023/12/07 07:00:42;;;;;;;9.73;3.70;;;;;;;2.71;99.59;97948.38;4410254;32;20098;-82
2023/12/07 07:03:09;;;;;;;11.45;4.18;;;;;;;2.76;98.63;97953.41;4410023;32;20125;-83
2023/12/07 07:05:36;;;;;;;13.25;4.60;;;;;;;3.03;96.88;97953.06;4409992;32;20109;-83
2023/12/07 07:08:03;;;;;;;13.20;5.25;;;;;;;3.18;96.07;97959.63;4410054;32;20118;-82
2023/12/07 07:10:30;;;;;;;11.48;4.35;;;;;;;3.09;96.35;97963.16;4397394;32;20116;-82
2023/12/07 07:13:02;;;;;;;10.18;4.22;;;;;;;2.86;98.05;97963.47;4412482;32;20082;-82
2023/12/07 07:15:33;;;;;;;11.88;4.37;;;;;;;2.44;100.00;97961.47;4410057;32;20089;-82
2023/12/07 07:18:01;;;;;;;11.52;4.68;;;;;;;2.54;100.00;97946.03;4409901;32;20112;-81
2023/12/07 07:20:28;;;;;;;9.63;3.72;;;;;;;2.65;99.98;97979.03;4396204;32;20109;-82
2023/12/07 07:22:55;;;;;;;12.48;5.25;;;;;;;3.08;98.78;97960.63;4410133;32;20220;-82
2023/12/07 07:25:22;;;;;;;10.40;4.25;;;;;;;2.95;98.08;97966.75;4409466;32;20159;-82
2023/12/07 07:27:49;;;;;;;11.70;4.35;;;;;;;3.06;98.42;97977.66;4412861;32;20124;-83
2023/12/07 07:30:16;;;;;;;10.65;4.12;;;;;;;2.92;97.86;97972.75;4411200;32;20100;-81
2023/12/07 07:32:43;;;;;;;11.35;4.30;;;;;;;3.21;95.75;97968.97;4411426;32;20086;-82
2023/12/07 07:35:11;;;;;;;12.27;4.32;;;;;;;3.30;95.17;97973.94;4413996;32;20114;-83
2023/12/07 07:37:39;;;;;;;11.07;4.60;;;;;;;2.99;96.73;97969.25;4412745;32;20464;-82
2023/12/07 07:40:06;;;;;;;10.18;4.30;;;;;;;3.26;96.15;97972.25;4416316;32;20082;-83
2023/12/07 07:42:34;;;;;;;9.43;3.90;;;;;;;3.46;93.36;97967.72;4415840;32;20096;-84
2023/12/07 07:45:01;;;;;;;10.63;4.00;;;;;;;3.28;94.52;97963.72;4412546;32;20162;-83
2023/12/07 07:47:28;;;;;;;10.57;4.25;;;;;;;2.84;98.78;97961.81;4414004;32;20144;-83
2023/12/07 07:49:55;;;;;;;10.65;4.40;;;;;;;3.35;95.11;97978.06;4414269;32;20105;-83
2023/12/07 07:52:22;;;;;;;9.82;4.07;;;;;;;3.07;96.48;97980.16;4414863;32;20096;-84
2023/12/07 07:54:49;;;;;;;11.07;4.68;;;;;;;3.61;93.63;97987.84;4415230;32;20114;-83
2023/12/07 07:57:17;;;;;;;10.88;4.05;;;;;;;3.29;93.09;97984.97;4411264;32;20120;-83
2023/12/07 07:59:44;;;;;;;10.77;4.10;;;;;;;3.36;93.21;97989.13;4410963;32;20120;-83
2023/12/07 08:02:11;;;;;;;10.20;4.22;;;;;;;3.48;93.55;97992.31;4397182;32;20103;-83
2023/12/07 08:04:40;;;;;;;11.25;4.50;;;;;;;3.18;95.06;97988.50;4414763;32;20078;-82
2023/12/07 08:07:07;;;;;;;9.90;3.78;;;;;;;3.09;94.52;97993.75;4417119;32;20098;-83
2023/12/07 08:09:34;;;;;;;12.30;4.70;;;;;;;2.81;95.71;97989.87;4415160;32;20062;-77
2023/12/07 08:12:01;;;;;;;10.52;4.40;;;;;;;3.27;93.75;97997.75;4414389;32;20095;-79
2023/12/07 08:14:28;;;;;;;13.52;5.47;;;;;;;3.44;93.11;97998.34;4409120;32;20159;-78
2023/12/07 08:16:55;;;;;;;10.35;4.15;;;;;;;3.32;92.06;98002.78;4409287;32;20146;-78
2023/12/07 08:19:22;;;;;;;11.82;4.70;;;;;;;4.11;89.01;98008.31;4410260;32;20168;-80
2023/12/07 08:21:51;;;;;;;8.93;3.65;;;;;;;3.43;91.70;98003.47;4410749;32;20086;-82
2023/12/07 08:24:17;;;;;;;10.40;4.18;;;;;;;3.27;92.82;98000.28;4410606;32;20098;-80
2023/12/07 08:26:44;;;;;;;11.93;4.55;;;;;;;3.24;93.83;97989.31;4409054;32;20828;-81
2023/12/07 08:29:12;;;;;;;10.77;4.95;;;;;;;3.26;92.76;97997.75;4410386;32;20094;-81
2023/12/07 08:31:42;;;;;;;9.68;4.03;;;;;;;3.31;93.53;97994.28;4409922;32;20090;-81
2023/12/07 08:34:09;;;;;;;11.45;4.55;;;;;;;3.39;91.88;98014.56;4395295;32;20120;-81
2023/12/07 08:36:37;;;;;;;10.93;4.05;;;;;;;3.30;92.40;98013.00;4409215;32;20105;-81
2023/12/07 08:39:04;;;;;;;10.38;3.80;;;;;;;3.36;91.92;98010.34;4409327;32;20494;-82
2023/12/07 08:41:30;;;;;;;10.50;4.60;;;;;;;3.14;92.03;98003.87;4409246;32;20125;-82
2023/12/07 08:43:57;;;;;;;11.65;5.12;;;;;;;3.58;90.62;98004.94;4409153;32;20149;-82
2023/12/07 08:46:25;;;;;;;11.02;4.72;;;;;;;3.06;93.43;98011.63;4409001;32;20128;-82
2023/12/07 08:48:52;;;;;;;9.80;4.28;;;;;;;2.72;94.36;98011.22;4408789;32;20090;-81
2023/12/07 08:51:19;;;;;;;11.65;4.97;;;;;;;2.90;95.62;98011.00;4408987;32;20141;-81
2023/12/07 08:53:46;;;;;;;12.20;4.82;;;;;;;2.99;94.97;98015.12;4409045;32;20137;-82
2023/12/07 08:56:19;;;;;;;13.20;4.95;;;;;;;2.89;94.85;98023.75;4408422;32;20090;-81
2023/12/07 08:58:46;;;;;;;13.05;5.10;;;;;;;3.45;91.80;98028.09;4408957;32;20441;-82
2023/12/07 09:01:13;;;;;;;12.85;4.95;;;;;;;3.13;94.35;98020.03;4408910;32;20132;-81
2023/12/07 09:03:57;;;;;;;12.93;4.95;;;;;;;3.35;93.06;98028.25;4408918;32;20113;-82
2023/12/07 09:06:24;;;;;;;11.35;4.75;;;;;;;3.01;92.89;98026.16;4408798;32;20120;-82
2023/12/07 09:08:52;;;;;;;12.30;5.15;;;;;;;2.91;93.37;98011.84;4408534;32;20086;-81
2023/12/07 09:11:19;;;;;;;12.07;4.97;;;;;;;2.94;93.79;98031.34;4408871;32;20451;-82
2023/12/07 09:13:47;;;;;;;11.85;4.82;;;;;;;2.98;94.56;98033.84;4408760;32;20117;-82
2023/12/07 09:16:14;;;;;;;14.35;5.30;;;;;;;3.16;92.91;98042.94;4408317;32;20105;-81
2023/12/07 09:18:42;;;;;;;14.40;5.60;;;;;;;2.95;95.46;98033.87;4411933;32;20197;-80
2023/12/07 09:21:09;;;;;;;12.18;5.18;;;;;;;3.00;94.49;98038.91;4411479;32;20441;-81
2023/12/07 09:23:37;;;;;;;13.85;5.15;;;;;;;3.35;92.16;98051.19;4411105;32;20097;-80
2023/12/07 09:26:04;;;;;;;12.98;5.60;;;;;;;3.74;89.43;98034.47;4411340;32;20097;-81
2023/12/07 09:28:33;;;;;;;13.93;5.82;;;;;;;3.02;92.92;98020.19;4411081;32;20161;-81
2023/12/07 09:31:00;;;;;;;12.52;5.35;;;;;;;3.80;90.12;98043.72;4411469;32;20086;-81
2023/12/07 09:33:27;;;;;;;14.32;5.97;;;;;;;3.48;91.06;98045.03;4410940;32;20181;-80
2023/12/07 09:35:55;;;;;;;11.35;4.53;;;;;;;3.39;90.25;98037.53;4410698;32;20113;-81
2023/12/07 09:38:22;;;;;;;12.88;5.60;;;;;;;3.03;93.91;98044.81;4410982;32;20104;-81
2023/12/07 09:40:53;;;;;;;12.98;5.75;;;;;;;3.27;92.27;98042.78;4397967;32;20165;-81
2023/12/07 09:43:20;;;;;;;14.30;5.70;;;;;;;3.37;92.14;98029.06;4411017;32;20518;-82
2023/12/07 09:45:47;;;;;;;14.13;5.55;;;;;;;3.70;89.39;98046.41;4410931;32;20116;-81
2023/12/07 09:48:16;;;;;;;13.70;5.95;;;;;;;3.68;89.01;98037.09;4410916;32;20147;-79
2023/12/07 09:50:43;;;;;;;12.63;5.35;;;;;;;3.69;88.02;98033.69;4396821;32;20109;-79
2023/12/07 09:53:10;;;;;;;12.70;5.35;;;;;;;3.49;89.53;98041.63;4411034;32;20453;-81
2023/12/07 09:55:37;;;;;;;11.93;5.55;;;;;;;3.69;88.86;98038.78;4410503;32;20110;-81
2023/12/07 09:58:07;;;;;;;13.20;5.07;;;;;;;3.58;88.57;98027.91;4410958;32;20104;-82
2023/12/07 10:00:36;;;;;;;12.57;5.00;;;;;;;3.68;89.48;98040.50;4411623;32;20116;-81
2023/12/07 10:03:07;;;;;;;15.52;5.70;;;;;;;4.25;85.49;98044.66;4413924;32;20054;-80
2023/12/07 10:05:58;;;;;;;12.93;5.62;;;;;;;3.65;89.42;98042.25;4399163;32;20490;-80
2023/12/07 10:08:29;;;;;;;12.43;5.72;;;;;;;3.45;89.86;98043.38;4397467;32;20142;-80
2023/12/07 10:11:11;;;;;;;13.93;5.70;;;;;;;3.56;90.28;98043.22;4397557;32;20149;-80
2023/12/07 10:13:38;;;;;;;13.82;5.90;;;;;;;3.90;88.48;98033.34;4412158;32;20484;-79
2023/12/07 10:16:11;;;;;;;14.57;5.70;;;;;;;3.52;89.96;98035.66;4411272;32;20455;-78
2023/12/07 10:18:40;;;;;;;13.43;5.65;;;;;;;3.75;87.67;98031.88;4397375;32;20157;-79
2023/12/07 10:21:10;;;;;;;12.18;5.45;;;;;;;3.59;88.77;98025.31;4410923;32;20078;-78
2023/12/07 10:23:38;;;;;;;13.50;5.32;;;;;;;3.71;87.81;98032.78;4410858;32;20091;-79
2023/12/07 10:26:08;;;;;;;13.82;5.22;;;;;;;3.82;87.78;98029.22;4399392;32;20121;-79
2023/12/07 10:28:38;;;;;;;11.98;5.00;;;;;;;3.69;87.74;98018.38;4409583;32;20086;-79
2023/12/07 10:31:09;;;;;;;13.00;5.40;;;;;;;3.78;88.78;98010.56;4397359;32;20074;-79
2023/12/07 10:33:37;;;;;;;12.37;5.53;;;;;;;4.12;86.99;98021.03;4409965;32;20110;-81
2023/12/07 10:36:06;;;;;;;14.25;5.05;;;;;;;3.80;88.46;98013.94;4410156;32;20140;-80
2023/12/07 10:38:33;;;;;;;13.57;5.53;;;;;;;3.35;90.52;98016.31;4397140;32;20104;-80
2023/12/07 10:41:07;;;;;;;12.10;5.43;;;;;;;3.52;90.62;98022.91;4397993;32;20119;-80
2023/12/07 10:43:37;;;;;;;12.43;5.65;;;;;;;3.72;89.51;98023.41;4399627;32;20167;-80
2023/12/07 10:46:05;;;;;;;12.40;5.45;;;;;;;3.48;89.81;98014.44;4399035;32;20129;-80
2023/12/07 10:48:32;;;;;;;12.60;6.00;;;;;;;3.22;90.60;98012.28;4397317;32;20116;-81
2023/12/07 10:51:00;;;;;;;14.38;5.37;;;;;;;3.36;90.94;98020.56;4411311;32;20078;-80
2023/12/07 10:53:31;;;;;;;14.68;6.00;;;;;;;3.57;90.62;98019.41;4411932;32;20118;-81
2023/12/07 10:56:01;;;;;;;15.88;6.37;;;;;;;3.38;90.59;98020.53;4397653;32;20102;-81
2023/12/07 10:58:28;;;;;;;15.13;6.07;;;;;;;3.77;88.87;98014.84;4398927;32;20106;-80
2023/12/07 11:00:57;;;;;;;14.02;5.78;;;;;;;3.88;87.40;98019.75;4412904;32;20086;-80
2023/12/07 11:03:25;;;;;;;12.82;5.55;;;;;;;3.74;87.30;98019.16;4398817;32;20785;-79
2023/12/07 11:05:52;;;;;;;14.95;6.18;;;;;;;3.67;88.47;98012.44;4398693;32;20121;-79
2023/12/07 11:08:43;;;;;;;13.05;5.87;;;;;;;3.40;89.76;98034.09;4412741;32;20104;-80
2023/12/07 11:11:20;;;;;;;13.48;6.20;;;;;;;3.48;88.55;98020.37;4411180;32;20120;-79
2023/12/07 11:13:57;;;;;;;12.00;5.82;;;;;;;3.26;90.29;98018.16;4396889;32;20106;-79
2023/12/07 11:16:42;;;;;;;15.55;6.75;;;;;;;3.59;89.02;98040.63;4410509;32;20137;-82
2023/12/07 11:19:39;;;;;;;15.38;6.12;;;;;;;3.41;90.15;98051.13;4411257;32;20104;-81
2023/12/07 11:22:08;;;;;;;14.77;6.47;;;;;;;3.77;87.77;98050.56;4410430;32;20069;-80
2023/12/07 11:24:36;;;;;;;14.50;6.25;;;;;;;4.12;85.16;98056.78;4410124;32;20134;-79
2023/12/07 11:27:03;;;;;;;14.05;5.25;;;;;;;4.40;84.37;98062.28;4410542;32;20445;-80
2023/12/07 11:29:31;;;;;;;14.85;6.20;;;;;;;4.23;84.59;98070.22;4396410;32;20147;-80
2023/12/07 11:32:06;;;;;;;14.25;5.97;;;;;;;4.64;82.20;98074.59;4410411;32;20085;-80
2023/12/07 11:34:45;;;;;;;15.40;6.35;;;;;;;3.90;86.00;98078.44;4400458;32;20164;-81
2023/12/07 11:37:16;;;;;;;14.05;6.00;;;;;;;4.50;82.99;98081.69;4409632;32;20153;-80
2023/12/07 11:39:46;;;;;;;14.25;5.65;;;;;;;4.73;82.08;98082.97;4396408;32;20093;-80